createdAt,value
2019-03-15T00:05:15.295Z,5.10
2019-03-15T00:08:39.702Z,5.10
2019-03-15T00:15:10.619Z,5.20
2019-03-15T00:21:41.777Z,5.40
2019-03-15T00:28:12.319Z,5.50
2019-03-15T00:34:42.979Z,5.60
2019-03-15T00:38:07.445Z,5.70
2019-03-15T00:44:38.345Z,5.70
2019-03-15T00:51:09.417Z,5.80
2019-03-15T00:57:40.086Z,5.90
2019-03-15T01:04:11.291Z,5.70
2019-03-15T01:07:36.242Z,5.30
2019-03-15T01:14:07.174Z,5.10
2019-03-15T01:16:36.963Z,5.10
2019-03-15T01:23:07.265Z,5.30
2019-03-15T01:29:37.933Z,5.30
2019-03-15T01:33:02.337Z,5.20
2019-03-15T01:39:32.684Z,5.20
2019-03-15T01:46:03.867Z,5.20
2019-03-15T01:49:28.019Z,5.30
2019-03-15T01:55:58.266Z,5.20
2019-03-15T01:59:23.015Z,5.10
2019-03-15T02:05:54.478Z,5.00
2019-03-15T02:09:18.862Z,4.90
2019-03-15T02:15:49.919Z,4.90
2019-03-15T02:22:20.405Z,4.70
2019-03-15T02:28:52.782Z,4.70
2019-03-15T02:35:23.703Z,4.70
2019-03-15T02:38:01.708Z,4.60
2019-03-15T02:44:31.889Z,4.70
2019-03-15T02:51:01.978Z,4.70
2019-03-15T02:54:27.316Z,4.70
2019-03-15T03:00:57.184Z,4.60
2019-03-15T03:04:21.795Z,4.60
2019-03-15T03:10:51.950Z,4.50
2019-03-15T03:14:16.203Z,4.50
2019-03-15T03:16:46.233Z,4.50
2019-03-15T03:23:17.419Z,4.40
2019-03-15T03:29:48.075Z,4.50
2019-03-15T03:36:18.881Z,4.40
2019-03-15T03:39:43.308Z,4.60
2019-03-15T03:46:14.094Z,4.80
2019-03-15T03:49:38.383Z,5.00
2019-03-15T03:56:09.237Z,5.00
2019-03-15T03:59:33.980Z,5.10
2019-03-15T04:06:05.000Z,5.30
2019-03-15T04:09:29.310Z,5.40
2019-03-15T04:16:00.530Z,5.50
2019-03-15T04:18:30.362Z,5.60
2019-03-15T04:25:02.365Z,5.70
2019-03-15T04:31:33.339Z,5.90
2019-03-15T04:34:58.045Z,6.10
2019-03-15T04:41:28.646Z,6.30
2019-03-15T04:44:53.011Z,6.50
2019-03-15T04:51:24.635Z,6.60
2019-03-15T04:54:48.753Z,6.60
2019-03-15T05:01:19.574Z,6.60
2019-03-15T05:04:43.917Z,6.60
2019-03-15T05:11:14.895Z,6.80
2019-03-15T05:14:39.164Z,6.80
2019-03-15T05:21:09.717Z,6.80
2019-03-15T05:27:41.123Z,6.80
2019-03-15T05:34:11.586Z,6.90
2019-03-15T05:40:42.572Z,7.00
2019-03-15T05:47:13.568Z,6.80
2019-03-15T05:50:02.794Z,6.60
2019-03-15T05:56:34.850Z,6.50
2019-03-15T06:03:05.844Z,6.40
2019-03-15T06:06:30.234Z,6.40
2019-03-15T06:13:01.416Z,6.30
2019-03-15T06:19:31.994Z,6.30
2019-03-15T06:22:01.877Z,6.30
2019-03-15T06:28:32.852Z,6.30
2019-03-15T06:35:04.157Z,6.30
2019-03-15T06:41:36.141Z,6.10
2019-03-15T06:44:40.552Z,6.10
2019-03-15T06:55:11.558Z,6.10
2019-03-15T07:01:41.728Z,6.10
2019-03-15T07:05:05.771Z,6.00
2019-03-15T07:11:35.980Z,6.00
2019-03-15T07:18:07.993Z,6.00
2019-03-15T07:24:37.928Z,6.00
2019-03-15T07:31:08.806Z,6.00
2019-03-15T07:34:33.284Z,6.00
2019-03-15T07:41:04.039Z,6.00
2019-03-15T07:44:28.788Z,6.00
2019-03-15T07:50:59.662Z,5.90
2019-03-15T07:57:31.042Z,5.90
2019-03-15T08:00:55.677Z,5.90
2019-03-15T08:07:35.832Z,5.90
2019-03-15T08:13:59.638Z,5.80
2019-03-15T08:20:30.807Z,5.90
2019-03-15T08:27:00.849Z,6.00
2019-03-15T08:33:31.263Z,6.00
2019-03-15T08:40:02.197Z,6.20
2019-03-15T08:46:33.215Z,6.40
2019-03-15T08:50:00.163Z,6.40
2019-03-15T08:56:31.042Z,6.60
2019-03-15T08:59:57.686Z,6.70
2019-03-15T09:06:27.506Z,6.90
2019-03-15T09:09:51.877Z,7.10
2019-03-15T09:16:22.444Z,7.30
2019-03-15T09:22:53.266Z,7.30
2019-03-15T09:25:50.919Z,7.50
2019-03-15T09:28:20.945Z,7.50
2019-03-15T09:34:51.066Z,7.50
2019-03-15T09:41:30.818Z,7.70
2019-03-15T09:47:53.020Z,7.70
2019-03-15T09:50:59.315Z,7.80
2019-03-15T09:57:29.391Z,7.90
2019-03-15T10:03:59.597Z,8.00
2019-03-15T10:10:30.607Z,8.20
2019-03-15T10:17:01.027Z,8.20
2019-03-15T10:20:25.628Z,8.20
2019-03-15T10:26:56.589Z,8.40
2019-03-15T10:29:28.767Z,8.40
2019-03-15T10:35:59.320Z,8.40
2019-03-15T10:42:31.012Z,8.50
2019-03-15T10:49:01.687Z,8.70
2019-03-15T10:52:08.554Z,8.70
2019-03-15T10:58:39.533Z,8.70
2019-03-15T11:02:03.809Z,8.80
2019-03-15T11:08:34.876Z,8.90
2019-03-15T11:11:59.442Z,8.80
2019-03-15T11:18:30.378Z,8.90
2019-03-15T11:25:02.581Z,9.00
2019-03-15T11:31:32.795Z,9.00
2019-03-15T11:38:03.634Z,9.10
2019-03-15T11:41:28.670Z,9.10
2019-03-15T11:48:04.112Z,9.20
2019-03-15T11:54:32.215Z,9.20
2019-03-15T11:57:56.794Z,9.30
2019-03-15T12:04:27.810Z,9.40
2019-03-15T12:07:51.931Z,9.40
2019-03-15T12:14:22.668Z,9.40
2019-03-15T12:20:53.475Z,9.30
2019-03-15T12:27:24.022Z,9.40
2019-03-15T12:33:55.908Z,9.50
2019-03-15T12:40:26.464Z,9.60
2019-03-15T12:46:57.093Z,9.80
2019-03-15T12:53:28.135Z,9.90
2019-03-15T12:59:58.809Z,10.00
2019-03-15T13:03:23.141Z,10.10
2019-03-15T13:09:53.674Z,10.20
2019-03-15T13:16:23.970Z,10.30
2019-03-15T13:22:54.913Z,10.40
2019-03-15T13:29:25.510Z,10.40
2019-03-15T13:32:49.731Z,10.40
2019-03-15T13:35:19.750Z,10.50
2019-03-15T13:41:51.430Z,10.60
2019-03-15T13:48:22.242Z,10.70
2019-03-15T13:54:54.120Z,10.70
2019-03-15T13:58:18.095Z,10.60
2019-03-15T14:04:49.047Z,10.60
2019-03-15T14:11:21.591Z,10.70
2019-03-15T14:14:45.888Z,10.60
2019-03-15T14:21:16.787Z,10.60
2019-03-15T14:24:41.177Z,10.50
2019-03-15T14:31:11.415Z,10.50
2019-03-15T14:37:42.243Z,10.50
2019-03-15T14:44:13.195Z,10.40
2019-03-15T14:50:44.816Z,10.30
2019-03-15T14:54:09.426Z,10.20
2019-03-15T15:00:40.108Z,10.00
2019-03-15T15:07:10.818Z,10.10
2019-03-15T15:13:41.396Z,10.20
2019-03-15T15:20:12.700Z,10.40
2019-03-15T15:23:37.158Z,10.40
2019-03-15T15:30:10.870Z,10.40
2019-03-15T15:33:35.207Z,10.50
2019-03-15T15:40:11.291Z,10.50
2019-03-15T15:46:42.575Z,10.50
2019-03-15T15:50:06.933Z,10.40
2019-03-15T15:56:37.271Z,10.20
2019-03-15T16:03:07.845Z,10.00
2019-03-15T16:09:38.331Z,10.00
2019-03-15T16:16:10.186Z,10.00
2019-03-15T16:19:34.751Z,10.00
2019-03-15T16:26:05.733Z,10.10
2019-03-15T16:29:30.261Z,10.10
2019-03-15T16:36:01.226Z,10.20
2019-03-15T16:39:04.599Z,10.20
2019-03-15T16:41:34.578Z,10.30
2019-03-15T16:48:05.414Z,10.20
2019-03-15T16:54:35.516Z,10.40
2019-03-15T17:01:05.823Z,10.40
2019-03-15T17:04:29.968Z,10.40
2019-03-15T17:11:00.135Z,10.40
2019-03-15T17:14:25.783Z,10.30
2019-03-15T17:20:57.074Z,10.40
2019-03-15T17:24:23.018Z,10.40
2019-03-15T17:30:54.046Z,10.50
2019-03-15T17:34:18.800Z,10.50
2019-03-15T17:40:49.518Z,10.50
2019-03-15T17:47:20.087Z,10.50
2019-03-15T17:50:44.862Z,10.50
2019-03-15T17:57:15.552Z,10.50
2019-03-15T18:00:40.073Z,10.50
2019-03-15T18:07:10.856Z,10.50
2019-03-15T18:10:35.145Z,10.50
2019-03-15T18:17:05.245Z,10.50
2019-03-15T18:20:29.640Z,10.50
2019-03-15T18:27:09.166Z,10.60
2019-03-15T18:33:39.998Z,10.60
2019-03-15T18:40:16.209Z,10.60
2019-03-15T18:42:46.274Z,10.50
2019-03-15T18:49:18.701Z,10.60
2019-03-15T18:55:49.560Z,10.60
2019-03-15T19:02:20.604Z,10.60
2019-03-15T19:05:45.176Z,10.60
2019-03-15T19:12:15.770Z,10.40
2019-03-15T19:15:43.880Z,10.40
2019-03-15T19:22:14.870Z,10.30
2019-03-15T19:25:39.129Z,10.40
2019-03-15T19:32:09.632Z,10.40
2019-03-15T19:35:33.782Z,10.50
2019-03-15T19:42:04.173Z,10.50
2019-03-15T19:48:35.051Z,10.50
2019-03-15T19:51:59.615Z,10.50
2019-03-15T19:58:30.113Z,10.50
2019-03-15T20:05:00.819Z,10.50
2019-03-15T20:11:31.555Z,10.50
2019-03-15T20:18:01.699Z,10.60
2019-03-15T20:21:26.005Z,10.50
2019-03-15T20:24:11.260Z,10.60
2019-03-15T20:30:51.332Z,10.70
2019-03-15T20:37:19.340Z,10.70
2019-03-15T20:40:43.518Z,10.70
2019-03-15T20:43:13.499Z,10.60
2019-03-15T20:46:37.840Z,10.60
2019-03-15T20:53:12.853Z,10.50
2019-03-15T20:59:42.341Z,10.60
2019-03-15T21:06:12.724Z,10.50
2019-03-15T21:12:43.408Z,10.40
2019-03-15T21:19:05.101Z,10.30
2019-03-15T21:21:35.056Z,10.40
2019-03-15T21:24:05.033Z,10.30
2019-03-15T21:30:29.761Z,10.30
2019-03-15T21:32:59.923Z,10.30
2019-03-15T21:35:29.931Z,10.30
2019-03-15T21:37:59.787Z,10.20
2019-03-15T21:40:29.864Z,10.20
2019-03-15T21:46:51.282Z,10.10
2019-03-15T21:49:21.695Z,10.10
2019-03-15T21:51:51.684Z,10.20
2019-03-15T21:54:21.618Z,10.20
2019-03-15T21:56:51.690Z,10.10
2019-03-15T21:59:23.006Z,10.10
2019-03-15T22:01:52.950Z,10.20
2019-03-15T22:04:22.946Z,10.20
2019-03-15T22:06:52.883Z,10.30
2019-03-15T22:09:24.520Z,10.30
2019-03-15T22:11:54.526Z,10.30
2019-03-15T22:14:24.690Z,10.30
2019-03-15T22:16:54.813Z,10.30
2019-03-15T22:19:24.879Z,10.40
2019-03-15T22:21:57.251Z,10.40
2019-03-15T22:24:27.475Z,10.30
2019-03-15T22:26:57.569Z,10.30
2019-03-15T22:29:27.527Z,10.30
2019-03-15T22:31:57.495Z,10.40
2019-03-15T22:34:27.565Z,10.40
2019-03-15T22:36:57.593Z,10.40
2019-03-15T22:39:27.541Z,10.50
2019-03-15T22:45:49.338Z,10.50
2019-03-15T22:48:21.367Z,10.40
2019-03-15T22:50:52.649Z,10.40
2019-03-15T22:53:22.727Z,10.50
2019-03-15T22:55:52.649Z,10.40
2019-03-15T22:58:22.515Z,10.50
2019-03-15T23:00:52.451Z,10.50
2019-03-15T23:07:04.807Z,10.40
2019-03-15T23:09:34.816Z,10.40
2019-03-15T23:12:04.961Z,10.40
2019-03-15T23:14:36.445Z,10.40
2019-03-15T23:17:06.406Z,10.50
2019-03-15T23:19:36.434Z,10.50
2019-03-15T23:22:06.921Z,10.50
2019-03-15T23:24:36.912Z,10.40
2019-03-15T23:27:06.957Z,10.40
2019-03-15T23:29:37.018Z,10.40
2019-03-15T23:32:08.496Z,10.40
2019-03-15T23:34:38.483Z,10.40
2019-03-15T23:37:08.454Z,10.40
2019-03-15T23:39:38.450Z,10.40
2019-03-15T23:42:10.295Z,10.40
2019-03-15T23:44:43.236Z,10.30
2019-03-15T23:47:13.272Z,10.30
2019-03-15T23:49:43.414Z,10.20
2019-03-15T23:52:13.412Z,10.20
2019-03-15T23:54:43.341Z,10.10
